sensor_id;sensor_type;location;lat;lon;timestamp;pressure;altitude;pressure_sealevel;temperature;humidity
3844;BME280;1937;51.444;6.484;2024-01-10T00:01:33;65619.41;;;-4.92;63.17
3844;BME280;1937;51.444;6.484;2024-01-10T00:03:59;65598.53;;;-5.02;63.26
3844;BME280;1937;51.444;6.484;2024-01-10T00:06:26;65600.91;;;-5.07;63.51
3844;BME280;1937;51.444;6.484;2024-01-10T00:08:53;65589.06;;;-5.13;63.98
3844;BME280;1937;51.444;6.484;2024-01-10T00:11:21;65663.91;;;-4.86;63.29
3844;BME280;1937;51.444;6.484;2024-01-10T00:13:48;65625.25;;;-4.83;63.10
3844;BME280;1937;51.444;6.484;2024-01-10T00:16:15;65586.31;;;-5.11;63.10
3844;BME280;1937;51.444;6.484;2024-01-10T00:18:42;65631.16;;;-4.91;63.67
3844;BME280;1937;51.444;6.484;2024-01-10T00:21:09;65589.19;;;-4.97;62.46
3844;BME280;1937;51.444;6.484;2024-01-10T00:23:36;65590.56;;;-4.98;62.31
3844;BME280;1937;51.444;6.484;2024-01-10T00:26:03;65646.56;;;-4.88;62.23
3844;BME280;1937;51.444;6.484;2024-01-10T00:28:31;65628.66;;;-4.91;62.10
3844;BME280;1937;51.444;6.484;2024-01-10T00:30:58;65611.88;;;-4.92;61.17
3844;BME280;1937;51.444;6.484;2024-01-10T00:33:25;65638.44;;;-5.00;61.86
3844;BME280;1937;51.444;6.484;2024-01-10T00:35:51;65626.16;;;-4.91;62.12
3844;BME280;1937;51.444;6.484;2024-01-10T00:38:18;65573.44;;;-5.13;61.78
3844;BME280;1937;51.444;6.484;2024-01-10T00:40:45;65618.69;;;-5.09;61.42
3844;BME280;1937;51.444;6.484;2024-01-10T00:43:12;65616.13;;;-4.91;61.03
3844;BME280;1937;51.444;6.484;2024-01-10T00:45:40;65604.47;;;-4.99;61.32
3844;BME280;1937;51.444;6.484;2024-01-10T00:48:07;65614.88;;;-4.85;61.13
3844;BME280;1937;51.444;6.484;2024-01-10T00:50:34;65594.34;;;-4.92;61.35
3844;BME280;1937;51.444;6.484;2024-01-10T00:53:00;65599.22;;;-4.97;60.57
3844;BME280;1937;51.444;6.484;2024-01-10T00:55:27;65586.25;;;-4.93;60.43
3844;BME280;1937;51.444;6.484;2024-01-10T00:57:54;65599.94;;;-4.92;60.77
3844;BME280;1937;51.444;6.484;2024-01-10T01:00:20;65625.19;;;-5.05;62.06
3844;BME280;1937;51.444;6.484;2024-01-10T01:02:48;65617.72;;;-4.83;61.41
3844;BME280;1937;51.444;6.484;2024-01-10T01:05:15;65682.91;;;-4.94;61.66
3844;BME280;1937;51.444;6.484;2024-01-10T01:07:42;65631.66;;;-4.84;61.12
3844;BME280;1937;51.444;6.484;2024-01-10T01:10:08;65606.34;;;-4.71;60.59
3844;BME280;1937;51.444;6.484;2024-01-10T01:12:35;65615.94;;;-4.78;60.66
3844;BME280;1937;51.444;6.484;2024-01-10T01:15:02;65623.88;;;-4.82;60.55
3844;BME280;1937;51.444;6.484;2024-01-10T01:17:29;65587.34;;;-5.03;61.30
3844;BME280;1937;51.444;6.484;2024-01-10T01:19:57;65653.75;;;-4.91;61.36
3844;BME280;1937;51.444;6.484;2024-01-10T01:22:24;65585.44;;;-5.03;62.29
3844;BME280;1937;51.444;6.484;2024-01-10T01:24:52;65618.59;;;-5.02;61.95
3844;BME280;1937;51.444;6.484;2024-01-10T01:27:18;65603.31;;;-5.00;61.62
3844;BME280;1937;51.444;6.484;2024-01-10T01:29:45;65593.50;;;-5.13;61.88
3844;BME280;1937;51.444;6.484;2024-01-10T01:32:11;65612.31;;;-5.08;62.36
3844;BME280;1937;51.444;6.484;2024-01-10T01:34:38;65567.59;;;-5.12;62.38
3844;BME280;1937;51.444;6.484;2024-01-10T01:37:06;65612.78;;;-5.01;61.76
3844;BME280;1937;51.444;6.484;2024-01-10T01:39:33;65607.38;;;-5.14;62.24
3844;BME280;1937;51.444;6.484;2024-01-10T01:41:59;65574.31;;;-5.21;62.23
3844;BME280;1937;51.444;6.484;2024-01-10T01:44:26;65586.38;;;-5.28;63.30
3844;BME280;1937;51.444;6.484;2024-01-10T01:46:53;65600.97;;;-5.24;62.14
3844;BME280;1937;51.444;6.484;2024-01-10T01:49:19;65609.72;;;-5.01;62.41
3844;BME280;1937;51.444;6.484;2024-01-10T01:51:47;65592.16;;;-5.01;62.94
3844;BME280;1937;51.444;6.484;2024-01-10T01:54:15;65634.56;;;-4.99;62.50
3844;BME280;1937;51.444;6.484;2024-01-10T01:56:44;65563.25;;;-5.29;62.39
3844;BME280;1937;51.444;6.484;2024-01-10T01:59:11;65608.75;;;-5.15;62.53
3844;BME280;1937;51.444;6.484;2024-01-10T02:01:38;65570.50;;;-5.38;63.92
3844;BME280;1937;51.444;6.484;2024-01-10T02:04:05;65629.91;;;-5.25;62.90
3844;BME280;1937;51.444;6.484;2024-01-10T02:06:35;65592.22;;;-5.19;63.52
3844;BME280;1937;51.444;6.484;2024-01-10T02:09:01;65578.06;;;-5.27;63.74
3844;BME280;1937;51.444;6.484;2024-01-10T02:11:30;65587.69;;;-5.41;64.16
3844;BME280;1937;51.444;6.484;2024-01-10T02:13:57;65597.09;;;-5.23;63.42
3844;BME280;1937;51.444;6.484;2024-01-10T02:16:24;65619.00;;;-5.17;63.39
3844;BME280;1937;51.444;6.484;2024-01-10T02:18:51;65632.38;;;-5.08;62.37
3844;BME280;1937;51.444;6.484;2024-01-10T02:21:20;65577.00;;;-5.34;63.00
3844;BME280;1937;51.444;6.484;2024-01-10T02:23:47;65587.03;;;-5.34;63.32
3844;BME280;1937;51.444;6.484;2024-01-10T02:26:15;65599.84;;;-5.25;63.17
3844;BME280;1937;51.444;6.484;2024-01-10T02:28:42;65543.75;;;-5.28;62.99
3844;BME280;1937;51.444;6.484;2024-01-10T02:31:09;65600.66;;;-5.16;63.21
3844;BME280;1937;51.444;6.484;2024-01-10T02:33:36;65594.84;;;-5.14;63.61
3844;BME280;1937;51.444;6.484;2024-01-10T02:36:03;65540.38;;;-5.20;63.28
3844;BME280;1937;51.444;6.484;2024-01-10T02:38:33;65586.06;;;-5.20;64.04
3844;BME280;1937;51.444;6.484;2024-01-10T02:41:00;65575.09;;;-5.23;63.25
3844;BME280;1937;51.444;6.484;2024-01-10T02:43:29;65593.81;;;-5.22;63.29
3844;BME280;1937;51.444;6.484;2024-01-10T02:45:59;65556.97;;;-5.34;63.10
3844;BME280;1937;51.444;6.484;2024-01-10T02:48:25;65550.66;;;-5.51;64.71
3844;BME280;1937;51.444;6.484;2024-01-10T02:50:52;65578.47;;;-5.42;64.26
3844;BME280;1937;51.444;6.484;2024-01-10T02:53:21;65533.38;;;-5.42;64.28
3844;BME280;1937;51.444;6.484;2024-01-10T02:55:48;65590.47;;;-5.31;64.88
3844;BME280;1937;51.444;6.484;2024-01-10T02:58:15;65547.44;;;-5.56;64.61
3844;BME280;1937;51.444;6.484;2024-01-10T03:00:45;65567.84;;;-5.54;64.80
3844;BME280;1937;51.444;6.484;2024-01-10T03:03:11;65555.25;;;-5.65;65.66
3844;BME280;1937;51.444;6.484;2024-01-10T03:05:39;65541.38;;;-5.64;65.50
3844;BME280;1937;51.444;6.484;2024-01-10T03:08:06;65568.94;;;-5.64;65.12
3844;BME280;1937;51.444;6.484;2024-01-10T03:10:33;65577.44;;;-5.50;65.03
3844;BME280;1937;51.444;6.484;2024-01-10T03:12:59;65572.63;;;-5.52;64.44
3844;BME280;1937;51.444;6.484;2024-01-10T03:15:28;65572.06;;;-5.52;64.61
3844;BME280;1937;51.444;6.484;2024-01-10T03:17:57;65565.69;;;-5.51;65.69
3844;BME280;1937;51.444;6.484;2024-01-10T03:20:24;65566.03;;;-5.49;65.37
3844;BME280;1937;51.444;6.484;2024-01-10T03:22:50;65581.91;;;-5.68;66.32
3844;BME280;1937;51.444;6.484;2024-01-10T03:25:17;65548.47;;;-5.60;65.55
3844;BME280;1937;51.444;6.484;2024-01-10T03:27:44;65609.97;;;-5.61;66.14
3844;BME280;1937;51.444;6.484;2024-01-10T03:30:11;65532.09;;;-5.77;65.47
3844;BME280;1937;51.444;6.484;2024-01-10T03:32:38;65566.75;;;-5.44;65.34
3844;BME280;1937;51.444;6.484;2024-01-10T03:35:07;65601.78;;;-5.55;64.82
3844;BME280;1937;51.444;6.484;2024-01-10T03:37:34;65569.41;;;-5.57;65.85
3844;BME280;1937;51.444;6.484;2024-01-10T03:40:01;65567.09;;;-5.70;65.06
3844;BME280;1937;51.444;6.484;2024-01-10T03:42:28;65547.13;;;-5.88;66.03
3844;BME280;1937;51.444;6.484;2024-01-10T03:44:54;65528.97;;;-5.99;66.34
3844;BME280;1937;51.444;6.484;2024-01-10T03:47:21;65540.19;;;-5.87;66.83
3844;BME280;1937;51.444;6.484;2024-01-10T03:49:48;65568.25;;;-5.98;66.99
3844;BME280;1937;51.444;6.484;2024-01-10T03:52:16;65505.50;;;-6.13;67.18
3844;BME280;1937;51.444;6.484;2024-01-10T03:54:44;65513.47;;;-6.06;67.59
3844;BME280;1937;51.444;6.484;2024-01-10T03:57:11;65500.81;;;-6.11;67.46
3844;BME280;1937;51.444;6.484;2024-01-10T03:59:38;65535.94;;;-6.17;68.37
3844;BME280;1937;51.444;6.484;2024-01-10T04:02:05;65514.28;;;-6.08;67.73
3844;BME280;1937;51.444;6.484;2024-01-10T04:04:31;65486.56;;;-6.24;68.05
3844;BME280;1937;51.444;6.484;2024-01-10T04:06:58;65549.25;;;-6.01;67.96
3844;BME280;1937;51.444;6.484;2024-01-10T04:09:26;65527.00;;;-6.10;67.70
3844;BME280;1937;51.444;6.484;2024-01-10T04:11:53;65520.31;;;-6.00;67.55
3844;BME280;1937;51.444;6.484;2024-01-10T04:14:20;65513.78;;;-6.15;68.26
3844;BME280;1937;51.444;6.484;2024-01-10T04:16:46;65490.19;;;-6.23;68.13
3844;BME280;1937;51.444;6.484;2024-01-10T04:19:13;65450.69;;;-6.33;68.82
3844;BME280;1937;51.444;6.484;2024-01-10T04:21:40;65514.94;;;-6.14;68.76
3844;BME280;1937;51.444;6.484;2024-01-10T04:24:09;65509.56;;;-6.16;68.57
3844;BME280;1937;51.444;6.484;2024-01-10T04:26:37;65484.94;;;-6.32;68.99
3844;BME280;1937;51.444;6.484;2024-01-10T04:29:04;65508.38;;;-6.29;69.14
3844;BME280;1937;51.444;6.484;2024-01-10T04:31:30;65502.50;;;-6.21;69.57
3844;BME280;1937;51.444;6.484;2024-01-10T04:33:57;65472.91;;;-6.25;69.44
3844;BME280;1937;51.444;6.484;2024-01-10T04:36:24;65525.94;;;-6.17;69.05
3844;BME280;1937;51.444;6.484;2024-01-10T04:38:52;65526.59;;;-6.24;68.97
3844;BME280;1937;51.444;6.484;2024-01-10T04:41:19;65544.28;;;-6.19;68.94
3844;BME280;1937;51.444;6.484;2024-01-10T04:43:47;65502.34;;;-6.36;69.04
3844;BME280;1937;51.444;6.484;2024-01-10T04:46:14;65545.19;;;-6.16;69.72
3844;BME280;1937;51.444;6.484;2024-01-10T04:48:40;65524.94;;;-6.14;69.66
3844;BME280;1937;51.444;6.484;2024-01-10T04:51:07;65516.16;;;-6.19;68.96
3844;BME280;1937;51.444;6.484;2024-01-10T04:53:34;65483.81;;;-6.33;69.93
3844;BME280;1937;51.444;6.484;2024-01-10T04:56:01;65507.53;;;-6.38;70.19
3844;BME280;1937;51.444;6.484;2024-01-10T04:58:27;65485.31;;;-6.47;70.74
3844;BME280;1937;51.444;6.484;2024-01-10T05:00:56;65486.34;;;-6.50;70.76
3844;BME280;1937;51.444;6.484;2024-01-10T05:03:23;65501.28;;;-6.44;71.21
3844;BME280;1937;51.444;6.484;2024-01-10T05:05:49;65516.28;;;-6.44;70.76
3844;BME280;1937;51.444;6.484;2024-01-10T05:08:16;65467.56;;;-6.56;70.80
3844;BME280;1937;51.444;6.484;2024-01-10T05:10:49;65484.41;;;-6.50;70.94
3844;BME280;1937;51.444;6.484;2024-01-10T05:13:16;65448.84;;;-6.39;70.53
3844;BME280;1937;51.444;6.484;2024-01-10T05:15:42;65498.28;;;-6.51;70.44
3844;BME280;1937;51.444;6.484;2024-01-10T05:18:10;65496.22;;;-6.55;71.10
3844;BME280;1937;51.444;6.484;2024-01-10T05:20:37;65471.16;;;-6.66;71.35
3844;BME280;1937;51.444;6.484;2024-01-10T05:23:04;65467.38;;;-6.72;71.88
3844;BME280;1937;51.444;6.484;2024-01-10T05:25:30;65500.59;;;-6.67;71.60
3844;BME280;1937;51.444;6.484;2024-01-10T05:27:57;65496.16;;;-6.66;71.49
3844;BME280;1937;51.444;6.484;2024-01-10T05:30:24;65510.22;;;-6.69;71.96
3844;BME280;1937;51.444;6.484;2024-01-10T05:32:51;65494.88;;;-6.72;71.63
3844;BME280;1937;51.444;6.484;2024-01-10T05:35:19;65489.13;;;-6.59;71.87
3844;BME280;1937;51.444;6.484;2024-01-10T05:37:45;65434.47;;;-6.85;72.65
3844;BME280;1937;51.444;6.484;2024-01-10T05:40:15;65440.78;;;-6.69;72.58
3844;BME280;1937;51.444;6.484;2024-01-10T05:42:42;65470.00;;;-6.67;72.38
3844;BME280;1937;51.444;6.484;2024-01-10T05:45:09;65503.31;;;-6.69;72.72
3844;BME280;1937;51.444;6.484;2024-01-10T05:47:37;65476.28;;;-6.62;72.41
3844;BME280;1937;51.444;6.484;2024-01-10T05:50:04;65436.44;;;-6.75;72.47
3844;BME280;1937;51.444;6.484;2024-01-10T05:52:33;65449.47;;;-6.85;72.83
3844;BME280;1937;51.444;6.484;2024-01-10T05:55:00;65437.78;;;-7.05;74.12
3844;BME280;1937;51.444;6.484;2024-01-10T05:57:27;65459.75;;;-6.94;74.56
3844;BME280;1937;51.444;6.484;2024-01-10T05:59:55;65470.56;;;-6.95;74.71
3844;BME280;1937;51.444;6.484;2024-01-10T06:02:22;65461.91;;;-6.96;75.14
3844;BME280;1937;51.444;6.484;2024-01-10T06:04:49;65524.47;;;-6.85;74.81
3844;BME280;1937;51.444;6.484;2024-01-10T06:07:16;65430.16;;;-6.80;74.24
3844;BME280;1937;51.444;6.484;2024-01-10T06:09:44;65532.25;;;-6.76;74.29
3844;BME280;1937;51.444;6.484;2024-01-10T06:12:11;65518.44;;;-6.64;72.93
3844;BME280;1937;51.444;6.484;2024-01-10T06:14:37;65493.16;;;-6.73;73.70
3844;BME280;1937;51.444;6.484;2024-01-10T06:17:04;65467.59;;;-6.74;73.91
3844;BME280;1937;51.444;6.484;2024-01-10T06:19:31;65491.59;;;-6.70;73.54
3844;BME280;1937;51.444;6.484;2024-01-10T06:21:58;65468.69;;;-6.55;73.52
3844;BME280;1937;51.444;6.484;2024-01-10T06:24:25;65523.59;;;-6.77;73.80
3844;BME280;1937;51.444;6.484;2024-01-10T06:26:53;65485.34;;;-6.65;73.75
3844;BME280;1937;51.444;6.484;2024-01-10T06:29:19;65460.38;;;-6.82;74.30
3844;BME280;1937;51.444;6.484;2024-01-10T06:31:46;65482.53;;;-6.85;74.69
3844;BME280;1937;51.444;6.484;2024-01-10T06:34:13;65497.94;;;-6.71;74.38
3844;BME280;1937;51.444;6.484;2024-01-10T06:36:41;65518.88;;;-6.68;73.79
3844;BME280;1937;51.444;6.484;2024-01-10T06:39:09;65511.16;;;-6.48;73.63
3844;BME280;1937;51.444;6.484;2024-01-10T06:41:38;65542.00;;;-6.39;72.56
3844;BME280;1937;51.444;6.484;2024-01-10T06:44:09;65514.75;;;-6.30;72.14
3844;BME280;1937;51.444;6.484;2024-01-10T06:46:36;65480.38;;;-6.36;71.53
3844;BME280;1937;51.444;6.484;2024-01-10T06:49:03;65516.25;;;-6.26;71.69
3844;BME280;1937;51.444;6.484;2024-01-10T06:51:31;65522.84;;;-6.47;71.81
3844;BME280;1937;51.444;6.484;2024-01-10T06:53:58;65471.84;;;-6.32;71.91
3844;BME280;1937;51.444;6.484;2024-01-10T06:56:28;65508.09;;;-6.20;71.59
3844;BME280;1937;51.444;6.484;2024-01-10T06:58:55;65580.22;;;-6.16;71.10
3844;BME280;1937;51.444;6.484;2024-01-10T07:01:24;65518.84;;;-6.33;71.70
3844;BME280;1937;51.444;6.484;2024-01-10T07:06:19;65536.97;;;-6.21;70.89
3844;BME280;1937;51.444;6.484;2024-01-10T07:08:48;65551.81;;;-6.08;69.98
3844;BME280;1937;51.444;6.484;2024-01-10T07:11:16;65528.13;;;-6.38;70.51
3844;BME280;1937;51.444;6.484;2024-01-10T07:13:42;65526.88;;;-6.14;70.69
3844;BME280;1937;51.444;6.484;2024-01-10T07:16:09;65497.38;;;-6.25;70.23
3844;BME280;1937;51.444;6.484;2024-01-10T07:18:37;65513.34;;;-6.11;69.79
3844;BME280;1937;51.444;6.484;2024-01-10T07:21:05;65563.63;;;-6.13;69.30
3844;BME280;1937;51.444;6.484;2024-01-10T07:23:31;65536.97;;;-6.21;69.77
3844;BME280;1937;51.444;6.484;2024-01-10T07:25:59;65554.84;;;-6.18;70.70
3844;BME280;1937;51.444;6.484;2024-01-10T07:28:25;65533.72;;;-6.08;70.28
3844;BME280;1937;51.444;6.484;2024-01-10T07:30:52;65551.41;;;-6.22;69.68
3844;BME280;1937;51.444;6.484;2024-01-10T07:33:19;65526.88;;;-6.14;70.92
3844;BME280;1937;51.444;6.484;2024-01-10T07:35:47;65550.56;;;-6.13;70.02
3844;BME280;1937;51.444;6.484;2024-01-10T07:38:13;65535.03;;;-6.21;70.52
3844;BME280;1937;51.444;6.484;2024-01-10T07:40:40;65549.75;;;-6.12;70.37
3844;BME280;1937;51.444;6.484;2024-01-10T07:43:07;65553.66;;;-6.31;70.72
3844;BME280;1937;51.444;6.484;2024-01-10T07:45:36;65520.81;;;-6.22;71.26
3844;BME280;1937;51.444;6.484;2024-01-10T07:48:04;65499.78;;;-6.18;70.21
3844;BME280;1937;51.444;6.484;2024-01-10T07:50:30;65501.72;;;-6.19;71.28
3844;BME280;1937;51.444;6.484;2024-01-10T07:52:58;65525.72;;;-6.15;70.53
3844;BME280;1937;51.444;6.484;2024-01-10T07:55:26;65519.81;;;-6.18;71.02
3844;BME280;1937;51.444;6.484;2024-01-10T07:57:54;65558.09;;;-6.02;71.12
3844;BME280;1937;51.444;6.484;2024-01-10T08:00:21;65579.13;;;-6.06;71.37
3844;BME280;1937;51.444;6.484;2024-01-10T08:02:48;65550.56;;;-6.13;72.36
3844;BME280;1937;51.444;6.484;2024-01-10T08:05:15;65539.25;;;-6.19;72.10
3844;BME280;1937;51.444;6.484;2024-01-10T08:07:42;65502.63;;;-6.16;72.54
3844;BME280;1937;51.444;6.484;2024-01-10T08:10:10;65576.00;;;-6.17;72.65
3844;BME280;1937;51.444;6.484;2024-01-10T08:12:38;65586.59;;;-6.17;72.37
3844;BME280;1937;51.444;6.484;2024-01-10T08:15:07;65540.53;;;-6.13;72.59
3844;BME280;1937;51.444;6.484;2024-01-10T08:17:34;65569.47;;;-6.03;72.42
3844;BME280;1937;51.444;6.484;2024-01-10T08:20:03;65555.66;;;-5.91;71.74
3844;BME280;1937;51.444;6.484;2024-01-10T08:22:31;65559.88;;;-5.90;71.46
3844;BME280;1937;51.444;6.484;2024-01-10T08:24:58;65575.91;;;-5.82;71.05
3844;BME280;1937;51.444;6.484;2024-01-10T08:27:26;65586.22;;;-5.73;70.88
3844;BME280;1937;51.444;6.484;2024-01-10T08:29:53;65566.00;;;-5.60;70.73
3844;BME280;1937;51.444;6.484;2024-01-10T08:32:19;65603.84;;;-5.51;70.09
3844;BME280;1937;51.444;6.484;2024-01-10T08:34:47;65592.19;;;-5.59;70.38
3844;BME280;1937;51.444;6.484;2024-01-10T08:37:14;65598.91;;;-5.28;70.08
3844;BME280;1937;51.444;6.484;2024-01-10T08:39:42;65609.69;;;-5.41;69.90
3844;BME280;1937;51.444;6.484;2024-01-10T08:42:09;65644.34;;;-5.08;69.15
3844;BME280;1937;51.444;6.484;2024-01-10T08:44:38;65633.06;;;-5.03;68.33
3844;BME280;1937;51.444;6.484;2024-01-10T08:47:04;65663.84;;;-4.69;68.12
3844;BME280;1937;51.444;6.484;2024-01-10T08:49:31;65739.19;;;-3.78;66.32
3844;BME280;1937;51.444;6.484;2024-01-10T08:51:58;65829.31;;;-3.18;63.86
3844;BME280;1937;51.444;6.484;2024-01-10T08:54:24;65901.66;;;-2.27;60.66
3844;BME280;1937;51.444;6.484;2024-01-10T08:56:52;65802.38;;;-3.02;60.20
3844;BME280;1937;51.444;6.484;2024-01-10T08:59:18;65813.69;;;-3.07;61.97
3844;BME280;1937;51.444;6.484;2024-01-10T09:01:46;65909.78;;;-2.27;60.15
3844;BME280;1937;51.444;6.484;2024-01-10T09:04:13;65917.94;;;-2.15;60.04
3844;BME280;1937;51.444;6.484;2024-01-10T09:06:40;65931.59;;;-1.85;58.62
3844;BME280;1937;51.444;6.484;2024-01-10T09:09:06;66011.16;;;-1.31;57.68
3844;BME280;1937;51.444;6.484;2024-01-10T09:11:33;65981.91;;;-1.45;56.45
3844;BME280;1937;51.444;6.484;2024-01-10T09:13:59;65852.75;;;-2.68;58.82
3844;BME280;1937;51.444;6.484;2024-01-10T09:16:26;65843.25;;;-2.68;58.40
3844;BME280;1937;51.444;6.484;2024-01-10T09:18:54;65786.44;;;-3.34;59.27
3844;BME280;1937;51.444;6.484;2024-01-10T09:21:22;65754.72;;;-3.71;60.88
3844;BME280;1937;51.444;6.484;2024-01-10T09:23:49;65768.94;;;-3.29;61.14
3844;BME280;1937;51.444;6.484;2024-01-10T09:26:16;65823.31;;;-2.81;59.64
3844;BME280;1937;51.444;6.484;2024-01-10T09:28:43;65832.69;;;-2.86;58.28
3844;BME280;1937;51.444;6.484;2024-01-10T09:31:09;65810.03;;;-2.97;58.65
3844;BME280;1937;51.444;6.484;2024-01-10T09:33:36;65839.25;;;-2.49;59.54
3844;BME280;1937;51.444;6.484;2024-01-10T09:36:05;65831.47;;;-2.58;58.27
3844;BME280;1937;51.444;6.484;2024-01-10T09:38:35;65853.09;;;-2.77;58.17
3844;BME280;1937;51.444;6.484;2024-01-10T09:41:03;65797.34;;;-2.91;58.99
3844;BME280;1937;51.444;6.484;2024-01-10T09:43:30;65812.56;;;-2.75;58.69
3844;BME280;1937;51.444;6.484;2024-01-10T09:46:00;65867.16;;;-2.62;58.07
3844;BME280;1937;51.444;6.484;2024-01-10T09:48:27;65747.91;;;-3.32;57.82
3844;BME280;1937;51.444;6.484;2024-01-10T09:50:54;65782.94;;;-2.97;59.04
3844;BME280;1937;51.444;6.484;2024-01-10T09:53:24;65804.31;;;-3.13;59.21
3844;BME280;1937;51.444;6.484;2024-01-10T09:55:52;65794.94;;;-3.19;59.72
3844;BME280;1937;51.444;6.484;2024-01-10T09:58:22;65812.88;;;-3.06;59.28
3844;BME280;1937;51.444;6.484;2024-01-10T10:00:49;65825.25;;;-3.04;59.23
3844;BME280;1937;51.444;6.484;2024-01-10T10:03:17;65827.94;;;-2.66;58.17
3844;BME280;1937;51.444;6.484;2024-01-10T10:05:44;65836.75;;;-2.60;57.58
3844;BME280;1937;51.444;6.484;2024-01-10T10:08:13;65812.00;;;-2.75;57.46
3844;BME280;1937;51.444;6.484;2024-01-10T10:10:48;65841.31;;;-2.45;57.71
3844;BME280;1937;51.444;6.484;2024-01-10T10:13:24;65914.63;;;-1.91;57.20
3844;BME280;1937;51.444;6.484;2024-01-10T10:15:57;65869.03;;;-2.23;56.79
3844;BME280;1937;51.444;6.484;2024-01-10T10:18:25;65833.19;;;-2.57;57.08
3844;BME280;1937;51.444;6.484;2024-01-10T10:21:06;65908.44;;;-1.70;56.24
3844;BME280;1937;51.444;6.484;2024-01-10T10:23:33;65942.00;;;-1.38;55.44
3844;BME280;1937;51.444;6.484;2024-01-10T10:26:10;65942.13;;;-1.34;55.44
3844;BME280;1937;51.444;6.484;2024-01-10T10:28:39;65900.28;;;-1.59;55.37
3844;BME280;1937;51.444;6.484;2024-01-10T10:31:06;65893.66;;;-1.68;55.45
3844;BME280;1937;51.444;6.484;2024-01-10T10:33:33;66002.97;;;-0.53;53.94
3844;BME280;1937;51.444;6.484;2024-01-10T10:35:59;66060.22;;;-0.41;53.07
3844;BME280;1937;51.444;6.484;2024-01-10T10:38:26;66014.53;;;-0.38;53.16
3844;BME280;1937;51.444;6.484;2024-01-10T10:40:53;65999.63;;;-0.63;52.56
3844;BME280;1937;51.444;6.484;2024-01-10T10:43:22;65973.06;;;-1.17;52.39
3844;BME280;1937;51.444;6.484;2024-01-10T10:45:50;66013.13;;;-0.37;52.26
3844;BME280;1937;51.444;6.484;2024-01-10T10:48:17;65954.44;;;-0.87;53.08
3844;BME280;1937;51.444;6.484;2024-01-10T10:50:50;66003.06;;;-0.49;52.35
3844;BME280;1937;51.444;6.484;2024-01-10T10:53:20;66011.44;;;-0.50;52.41
3844;BME280;1937;51.444;6.484;2024-01-10T10:55:50;66039.75;;;-0.16;51.77
3844;BME280;1937;51.444;6.484;2024-01-10T10:58:17;66032.84;;;-0.11;51.02
3844;BME280;1937;51.444;6.484;2024-01-10T11:00:46;66076.44;;;0.27;50.97
3844;BME280;1937;51.444;6.484;2024-01-10T11:03:14;66114.44;;;0.43;50.64
3844;BME280;1937;51.444;6.484;2024-01-10T11:05:42;66062.78;;;0.09;50.30
3844;BME280;1937;51.444;6.484;2024-01-10T11:08:14;66088.81;;;-0.20;51.28
3844;BME280;1937;51.444;6.484;2024-01-10T11:10:43;66019.31;;;-0.25;51.79
3844;BME280;1937;51.444;6.484;2024-01-10T11:13:26;66049.25;;;0.06;50.70
3844;BME280;1937;51.444;6.484;2024-01-10T11:16:10;66071.16;;;0.18;50.77
3844;BME280;1937;51.444;6.484;2024-01-10T11:18:52;66117.78;;;0.53;50.25
3844;BME280;1937;51.444;6.484;2024-01-10T11:21:23;66154.34;;;0.54;49.62
3844;BME280;1937;51.444;6.484;2024-01-10T11:23:54;66096.13;;;0.54;49.03
3844;BME280;1937;51.444;6.484;2024-01-10T11:26:22;66020.44;;;-0.13;50.89
3844;BME280;1937;51.444;6.484;2024-01-10T11:28:50;66055.88;;;-0.35;51.00
3844;BME280;1937;51.444;6.484;2024-01-10T11:31:27;65979.84;;;-0.45;50.99
3844;BME280;1937;51.444;6.484;2024-01-10T11:33:55;66110.16;;;0.04;50.86
3844;BME280;1937;51.444;6.484;2024-01-10T11:36:22;65998.13;;;-0.55;50.61
3844;BME280;1937;51.444;6.484;2024-01-10T11:38:53;66017.16;;;-0.34;51.27
3844;BME280;1937;51.444;6.484;2024-01-10T11:41:23;66002.31;;;-0.31;51.66
3844;BME280;1937;51.444;6.484;2024-01-10T11:47:07;66055.38;;;-0.09;50.66
3844;BME280;1937;51.444;6.484;2024-01-10T11:49:34;66065.19;;;0.15;50.27
3844;BME280;1937;51.444;6.484;2024-01-10T11:52:00;66022.13;;;-0.01;50.62
3844;BME280;1937;51.444;6.484;2024-01-10T11:54:37;66018.00;;;-0.58;51.43
3844;BME280;1937;51.444;6.484;2024-01-10T11:57:08;66075.09;;;0.06;50.94
3844;BME280;1937;51.444;6.484;2024-01-10T11:59:35;66065.25;;;-0.07;50.40
3844;BME280;1937;51.444;6.484;2024-01-10T12:02:01;66048.25;;;-0.13;51.82
3844;BME280;1937;51.444;6.484;2024-01-10T12:04:31;66055.91;;;0.03;51.35
3844;BME280;1937;51.444;6.484;2024-01-10T12:06:58;66092.22;;;0.17;51.16
3844;BME280;1937;51.444;6.484;2024-01-10T12:09:24;66101.25;;;0.31;50.62
3844;BME280;1937;51.444;6.484;2024-01-10T12:11:51;66022.53;;;-0.20;50.59
3844;BME280;1937;51.444;6.484;2024-01-10T12:14:18;66046.06;;;-0.11;51.19
3844;BME280;1937;51.444;6.484;2024-01-10T12:16:45;66078.69;;;-0.09;51.11
3844;BME280;1937;51.444;6.484;2024-01-10T12:19:12;66013.63;;;-0.04;51.84
3844;BME280;1937;51.444;6.484;2024-01-10T12:21:40;66057.34;;;-0.21;51.82
3844;BME280;1937;51.444;6.484;2024-01-10T12:24:07;66003.66;;;-0.59;51.53
3844;BME280;1937;51.444;6.484;2024-01-10T12:26:33;66059.25;;;0.01;51.54
3844;BME280;1937;51.444;6.484;2024-01-10T12:29:01;66090.84;;;0.07;51.67
3844;BME280;1937;51.444;6.484;2024-01-10T12:31:30;66014.88;;;-0.36;50.97
3844;BME280;1937;51.444;6.484;2024-01-10T12:33:56;66011.66;;;-0.52;52.29
3844;BME280;1937;51.444;6.484;2024-01-10T12:36:23;66058.81;;;-0.17;52.19
3844;BME280;1937;51.444;6.484;2024-01-10T12:38:51;66060.53;;;-0.16;51.82
3844;BME280;1937;51.444;6.484;2024-01-10T12:41:19;66071.16;;;0.18;51.52
3844;BME280;1937;51.444;6.484;2024-01-10T12:43:48;66024.47;;;-0.21;51.13
3844;BME280;1937;51.444;6.484;2024-01-10T12:46:15;66036.81;;;0.04;51.55
3844;BME280;1937;51.444;6.484;2024-01-10T12:48:42;66098.97;;;0.18;50.71
3844;BME280;1937;51.444;6.484;2024-01-10T12:51:09;66097.47;;;0.26;51.04
3844;BME280;1937;51.444;6.484;2024-01-10T12:53:39;66087.56;;;0.35;51.42
3844;BME280;1937;51.444;6.484;2024-01-10T12:56:08;66060.63;;;0.38;52.35
3844;BME280;1937;51.444;6.484;2024-01-10T12:58:39;66055.16;;;0.20;52.05
3844;BME280;1937;51.444;6.484;2024-01-10T13:01:08;66089.31;;;0.25;52.07
3844;BME280;1937;51.444;6.484;2024-01-10T13:03:35;66055.44;;;0.07;51.98
3844;BME280;1937;51.444;6.484;2024-01-10T13:06:02;66086.75;;;0.36;52.74
3844;BME280;1937;51.444;6.484;2024-01-10T13:08:29;66113.75;;;0.49;51.75
3844;BME280;1937;51.444;6.484;2024-01-10T13:10:57;66087.19;;;0.44;51.88
3844;BME280;1937;51.444;6.484;2024-01-10T13:13:26;66094.59;;;0.34;52.22
3844;BME280;1937;51.444;6.484;2024-01-10T13:15:53;66099.44;;;0.63;51.87
3844;BME280;1937;51.444;6.484;2024-01-10T13:18:21;66140.41;;;0.59;52.27
3844;BME280;1937;51.444;6.484;2024-01-10T13:20:47;66087.44;;;0.30;52.60
3844;BME280;1937;51.444;6.484;2024-01-10T13:23:14;66100.00;;;0.26;53.04
3844;BME280;1937;51.444;6.484;2024-01-10T13:25:41;66145.78;;;0.24;53.01
3844;BME280;1937;51.444;6.484;2024-01-10T13:28:08;66085.28;;;0.33;52.65
3844;BME280;1937;51.444;6.484;2024-01-10T13:30:38;66096.44;;;0.29;52.80